sensor_id;sensor_type;location;lat;lon;timestamp;temperature;humidity
51815;DHT22;37874;53.158;6.766;2023-11-19T00:00:05;18.70;67.80
51815;DHT22;37874;53.158;6.766;2023-11-19T00:02:32;18.70;68.30
51815;DHT22;37874;53.158;6.766;2023-11-19T00:04:58;18.70;67.80
51815;DHT22;37874;53.158;6.766;2023-11-19T00:07:24;18.80;67.80
51815;DHT22;37874;53.158;6.766;2023-11-19T00:09:49;18.70;67.70
51815;DHT22;37874;53.158;6.766;2023-11-19T00:12:15;18.70;67.80
51815;DHT22;37874;53.158;6.766;2023-11-19T00:14:41;18.70;67.80
51815;DHT22;37874;53.158;6.766;2023-11-19T00:17:07;18.70;67.80
51815;DHT22;37874;53.158;6.766;2023-11-19T00:19:33;18.80;67.80
51815;DHT22;37874;53.158;6.766;2023-11-19T00:21:59;18.80;67.80
51815;DHT22;37874;53.158;6.766;2023-11-19T00:24:28;18.80;67.80
51815;DHT22;37874;53.158;6.766;2023-11-19T00:26:54;18.80;67.80
51815;DHT22;37874;53.158;6.766;2023-11-19T00:29:20;18.80;67.80
51815;DHT22;37874;53.158;6.766;2023-11-19T00:31:46;18.80;67.80
51815;DHT22;37874;53.158;6.766;2023-11-19T00:34:12;18.80;67.70
51815;DHT22;37874;53.158;6.766;2023-11-19T00:36:39;18.80;67.80
51815;DHT22;37874;53.158;6.766;2023-11-19T00:39:04;18.80;67.80
51815;DHT22;37874;53.158;6.766;2023-11-19T00:41:31;18.80;67.70
51815;DHT22;37874;53.158;6.766;2023-11-19T00:43:57;18.80;67.70
51815;DHT22;37874;53.158;6.766;2023-11-19T00:46:23;18.80;67.70
51815;DHT22;37874;53.158;6.766;2023-11-19T00:48:49;18.80;67.70
51815;DHT22;37874;53.158;6.766;2023-11-19T00:51:14;18.80;67.70
51815;DHT22;37874;53.158;6.766;2023-11-19T00:53:40;18.80;67.80
51815;DHT22;37874;53.158;6.766;2023-11-19T00:56:06;18.80;67.80
51815;DHT22;37874;53.158;6.766;2023-11-19T00:58:32;18.80;67.70
51815;DHT22;37874;53.158;6.766;2023-11-19T01:00:59;18.80;67.70
51815;DHT22;37874;53.158;6.766;2023-11-19T01:03:25;18.90;67.80
51815;DHT22;37874;53.158;6.766;2023-11-19T01:05:51;18.80;67.70
51815;DHT22;37874;53.158;6.766;2023-11-19T01:08:18;18.80;67.70
51815;DHT22;37874;53.158;6.766;2023-11-19T01:10:44;18.80;67.80
51815;DHT22;37874;53.158;6.766;2023-11-19T01:13:10;18.90;67.80
51815;DHT22;37874;53.158;6.766;2023-11-19T01:15:36;18.90;67.80
51815;DHT22;37874;53.158;6.766;2023-11-19T01:18:02;18.90;67.90
51815;DHT22;37874;53.158;6.766;2023-11-19T01:20:30;18.80;67.80
51815;DHT22;37874;53.158;6.766;2023-11-19T01:22:56;18.80;67.90
51815;DHT22;37874;53.158;6.766;2023-11-19T01:25:22;18.80;67.90
51815;DHT22;37874;53.158;6.766;2023-11-19T01:27:48;18.90;68.00
51815;DHT22;37874;53.158;6.766;2023-11-19T01:30:15;18.80;67.90
51815;DHT22;37874;53.158;6.766;2023-11-19T01:32:41;18.90;68.00
51815;DHT22;37874;53.158;6.766;2023-11-19T01:35:07;18.90;68.00
51815;DHT22;37874;53.158;6.766;2023-11-19T01:37:34;18.80;68.00
51815;DHT22;37874;53.158;6.766;2023-11-19T01:40:03;18.80;68.00
51815;DHT22;37874;53.158;6.766;2023-11-19T01:42:37;18.90;68.10
51815;DHT22;37874;53.158;6.766;2023-11-19T01:45:07;18.80;68.10
51815;DHT22;37874;53.158;6.766;2023-11-19T01:47:35;18.80;68.00
51815;DHT22;37874;53.158;6.766;2023-11-19T01:50:03;18.90;68.10
51815;DHT22;37874;53.158;6.766;2023-11-19T01:52:35;18.90;68.10
51815;DHT22;37874;53.158;6.766;2023-11-19T01:55:04;18.80;68.10
51815;DHT22;37874;53.158;6.766;2023-11-19T01:57:31;18.80;68.10
51815;DHT22;37874;53.158;6.766;2023-11-19T01:59:58;18.80;68.10
51815;DHT22;37874;53.158;6.766;2023-11-19T02:02:24;18.90;68.20
51815;DHT22;37874;53.158;6.766;2023-11-19T02:04:52;18.80;68.10
51815;DHT22;37874;53.158;6.766;2023-11-19T02:07:18;18.80;68.10
51815;DHT22;37874;53.158;6.766;2023-11-19T02:09:44;18.90;68.10
51815;DHT22;37874;53.158;6.766;2023-11-19T02:12:10;18.80;68.10
51815;DHT22;37874;53.158;6.766;2023-11-19T02:14:40;18.90;68.10
51815;DHT22;37874;53.158;6.766;2023-11-19T02:17:06;18.90;68.10
51815;DHT22;37874;53.158;6.766;2023-11-19T02:19:32;18.90;68.10
51815;DHT22;37874;53.158;6.766;2023-11-19T02:21:59;18.90;68.10
51815;DHT22;37874;53.158;6.766;2023-11-19T02:24:28;18.90;68.10
51815;DHT22;37874;53.158;6.766;2023-11-19T02:27:02;18.90;68.00
51815;DHT22;37874;53.158;6.766;2023-11-19T02:29:28;18.90;68.00
51815;DHT22;37874;53.158;6.766;2023-11-19T02:31:54;18.90;68.00
51815;DHT22;37874;53.158;6.766;2023-11-19T02:34:20;18.90;68.00
51815;DHT22;37874;53.158;6.766;2023-11-19T02:36:47;18.90;68.00
51815;DHT22;37874;53.158;6.766;2023-11-19T02:39:13;18.90;68.00
51815;DHT22;37874;53.158;6.766;2023-11-19T02:41:39;18.90;68.00
51815;DHT22;37874;53.158;6.766;2023-11-19T02:44:06;18.90;68.10
51815;DHT22;37874;53.158;6.766;2023-11-19T02:46:32;18.90;68.00
51815;DHT22;37874;53.158;6.766;2023-11-19T02:48:58;18.90;68.00
51815;DHT22;37874;53.158;6.766;2023-11-19T02:51:24;18.90;68.00
51815;DHT22;37874;53.158;6.766;2023-11-19T02:53:49;18.90;68.00
51815;DHT22;37874;53.158;6.766;2023-11-19T02:56:15;18.90;68.00
51815;DHT22;37874;53.158;6.766;2023-11-19T02:58:51;18.90;68.00
51815;DHT22;37874;53.158;6.766;2023-11-19T03:01:26;18.90;68.50
51815;DHT22;37874;53.158;6.766;2023-11-19T03:03:58;18.90;67.90
51815;DHT22;37874;53.158;6.766;2023-11-19T03:06:24;18.90;67.90
51815;DHT22;37874;53.158;6.766;2023-11-19T03:08:50;18.90;67.90
51815;DHT22;37874;53.158;6.766;2023-11-19T03:11:16;18.90;68.00
51815;DHT22;37874;53.158;6.766;2023-11-19T03:13:42;18.90;68.00
51815;DHT22;37874;53.158;6.766;2023-11-19T03:16:08;18.90;67.90
51815;DHT22;37874;53.158;6.766;2023-11-19T03:18:34;18.90;68.00
51815;DHT22;37874;53.158;6.766;2023-11-19T03:21:00;18.90;68.00
51815;DHT22;37874;53.158;6.766;2023-11-19T03:23:25;18.90;68.50
51815;DHT22;37874;53.158;6.766;2023-11-19T03:25:54;18.90;67.90
51815;DHT22;37874;53.158;6.766;2023-11-19T03:28:20;18.90;67.90
51815;DHT22;37874;53.158;6.766;2023-11-19T03:30:45;18.90;67.90
51815;DHT22;37874;53.158;6.766;2023-11-19T03:33:11;18.90;67.90
51815;DHT22;37874;53.158;6.766;2023-11-19T03:35:37;18.90;67.90
51815;DHT22;37874;53.158;6.766;2023-11-19T03:38:03;18.90;67.90
51815;DHT22;37874;53.158;6.766;2023-11-19T03:40:29;18.90;67.90
51815;DHT22;37874;53.158;6.766;2023-11-19T03:42:58;18.90;67.90
51815;DHT22;37874;53.158;6.766;2023-11-19T03:45:24;18.90;67.90
51815;DHT22;37874;53.158;6.766;2023-11-19T03:47:51;18.90;67.90
51815;DHT22;37874;53.158;6.766;2023-11-19T03:50:17;18.90;67.80
51815;DHT22;37874;53.158;6.766;2023-11-19T03:52:46;18.90;67.80
51815;DHT22;37874;53.158;6.766;2023-11-19T03:55:12;18.90;67.80
51815;DHT22;37874;53.158;6.766;2023-11-19T03:57:38;18.90;67.80
51815;DHT22;37874;53.158;6.766;2023-11-19T04:00:05;18.90;67.80
51815;DHT22;37874;53.158;6.766;2023-11-19T04:02:40;18.90;67.70
51815;DHT22;37874;53.158;6.766;2023-11-19T04:05:06;18.90;67.70
51815;DHT22;37874;53.158;6.766;2023-11-19T04:07:32;18.90;67.70
51815;DHT22;37874;53.158;6.766;2023-11-19T04:09:59;18.90;67.70
51815;DHT22;37874;53.158;6.766;2023-11-19T04:12:25;18.90;67.70
51815;DHT22;37874;53.158;6.766;2023-11-19T04:14:51;18.90;67.70
51815;DHT22;37874;53.158;6.766;2023-11-19T04:17:17;18.90;67.60
51815;DHT22;37874;53.158;6.766;2023-11-19T04:19:43;18.90;67.70
51815;DHT22;37874;53.158;6.766;2023-11-19T04:22:09;18.90;67.60
51815;DHT22;37874;53.158;6.766;2023-11-19T04:24:35;18.90;67.60
51815;DHT22;37874;53.158;6.766;2023-11-19T04:27:01;18.90;67.60
51815;DHT22;37874;53.158;6.766;2023-11-19T04:29:27;18.90;67.60
51815;DHT22;37874;53.158;6.766;2023-11-19T04:31:52;18.90;67.60
51815;DHT22;37874;53.158;6.766;2023-11-19T04:34:18;18.90;67.50
51815;DHT22;37874;53.158;6.766;2023-11-19T04:36:44;19.00;67.60
51815;DHT22;37874;53.158;6.766;2023-11-19T04:39:10;18.90;67.50
51815;DHT22;37874;53.158;6.766;2023-11-19T04:41:48;18.90;67.50
51815;DHT22;37874;53.158;6.766;2023-11-19T04:44:15;18.90;67.50
51815;DHT22;37874;53.158;6.766;2023-11-19T04:46:42;18.90;67.50
51815;DHT22;37874;53.158;6.766;2023-11-19T04:49:10;18.90;67.50
51815;DHT22;37874;53.158;6.766;2023-11-19T04:51:43;18.90;67.50
51815;DHT22;37874;53.158;6.766;2023-11-19T04:54:09;18.90;67.40
51815;DHT22;37874;53.158;6.766;2023-11-19T04:56:39;18.90;67.50
51815;DHT22;37874;53.158;6.766;2023-11-19T04:59:06;18.90;67.40
51815;DHT22;37874;53.158;6.766;2023-11-19T05:01:33;18.90;67.40
51815;DHT22;37874;53.158;6.766;2023-11-19T05:03:59;18.90;67.40
51815;DHT22;37874;53.158;6.766;2023-11-19T05:06:28;18.90;67.40
51815;DHT22;37874;53.158;6.766;2023-11-19T05:08:55;18.90;67.20
51815;DHT22;37874;53.158;6.766;2023-11-19T05:11:21;18.90;67.80
51815;DHT22;37874;53.158;6.766;2023-11-19T05:13:47;18.90;67.20
51815;DHT22;37874;53.158;6.766;2023-11-19T05:16:13;18.90;67.30
51815;DHT22;37874;53.158;6.766;2023-11-19T05:18:41;18.90;67.30
51815;DHT22;37874;53.158;6.766;2023-11-19T05:21:07;18.90;67.30
51815;DHT22;37874;53.158;6.766;2023-11-19T05:23:33;18.90;67.20
51815;DHT22;37874;53.158;6.766;2023-11-19T05:26:02;18.90;67.30
51815;DHT22;37874;53.158;6.766;2023-11-19T05:28:28;18.90;67.30
51815;DHT22;37874;53.158;6.766;2023-11-19T05:30:54;18.80;67.20
51815;DHT22;37874;53.158;6.766;2023-11-19T05:33:21;18.80;67.20
51815;DHT22;37874;53.158;6.766;2023-11-19T05:35:47;18.90;67.20
51815;DHT22;37874;53.158;6.766;2023-11-19T05:38:12;18.90;67.10
51815;DHT22;37874;53.158;6.766;2023-11-19T05:40:38;18.90;67.10
51815;DHT22;37874;53.158;6.766;2023-11-19T05:43:05;18.90;67.10
51815;DHT22;37874;53.158;6.766;2023-11-19T05:45:32;18.90;66.90
51815;DHT22;37874;53.158;6.766;2023-11-19T05:47:58;18.80;66.90
51815;DHT22;37874;53.158;6.766;2023-11-19T05:50:24;18.40;66.70
51815;DHT22;37874;53.158;6.766;2023-11-19T05:52:50;18.80;66.80
51815;DHT22;37874;53.158;6.766;2023-11-19T05:55:18;18.90;67.00
51815;DHT22;37874;53.158;6.766;2023-11-19T05:57:45;18.80;66.90
51815;DHT22;37874;53.158;6.766;2023-11-19T06:00:11;18.90;67.00
51815;DHT22;37874;53.158;6.766;2023-11-19T06:02:38;18.80;67.00
51815;DHT22;37874;53.158;6.766;2023-11-19T06:05:05;18.90;66.90
51815;DHT22;37874;53.158;6.766;2023-11-19T06:07:34;18.90;66.80
51815;DHT22;37874;53.158;6.766;2023-11-19T06:10:02;18.90;66.80
51815;DHT22;37874;53.158;6.766;2023-11-19T06:12:30;18.90;66.70
51815;DHT22;37874;53.158;6.766;2023-11-19T06:15:00;18.90;66.70
51815;DHT22;37874;53.158;6.766;2023-11-19T06:17:26;18.90;66.60
51815;DHT22;37874;53.158;6.766;2023-11-19T06:19:52;18.90;66.70
51815;DHT22;37874;53.158;6.766;2023-11-19T06:22:18;18.90;67.30
51815;DHT22;37874;53.158;6.766;2023-11-19T06:24:44;18.90;66.70
51815;DHT22;37874;53.158;6.766;2023-11-19T06:27:09;18.90;66.70
51815;DHT22;37874;53.158;6.766;2023-11-19T06:29:35;18.90;66.70
51815;DHT22;37874;53.158;6.766;2023-11-19T06:32:02;18.90;66.70
51815;DHT22;37874;53.158;6.766;2023-11-19T06:34:28;18.90;66.70
51815;DHT22;37874;53.158;6.766;2023-11-19T06:36:53;18.90;66.60
51815;DHT22;37874;53.158;6.766;2023-11-19T06:39:19;18.90;66.60
51815;DHT22;37874;53.158;6.766;2023-11-19T06:41:46;18.90;66.60
51815;DHT22;37874;53.158;6.766;2023-11-19T06:44:12;18.90;66.70
51815;DHT22;37874;53.158;6.766;2023-11-19T06:46:39;18.90;66.60
51815;DHT22;37874;53.158;6.766;2023-11-19T06:49:04;18.90;66.60
51815;DHT22;37874;53.158;6.766;2023-11-19T06:51:30;18.80;66.60
51815;DHT22;37874;53.158;6.766;2023-11-19T06:53:57;18.90;66.60
51815;DHT22;37874;53.158;6.766;2023-11-19T06:56:24;18.90;66.60
51815;DHT22;37874;53.158;6.766;2023-11-19T06:58:52;18.90;66.50
51815;DHT22;37874;53.158;6.766;2023-11-19T07:01:19;18.80;66.50
51815;DHT22;37874;53.158;6.766;2023-11-19T07:03:45;18.90;66.60
51815;DHT22;37874;53.158;6.766;2023-11-19T07:06:14;18.90;66.60
51815;DHT22;37874;53.158;6.766;2023-11-19T07:08:44;18.80;66.50
51815;DHT22;37874;53.158;6.766;2023-11-19T07:11:13;18.90;66.40
51815;DHT22;37874;53.158;6.766;2023-11-19T07:13:42;18.90;66.40
51815;DHT22;37874;53.158;6.766;2023-11-19T07:16:09;18.90;66.30
51815;DHT22;37874;53.158;6.766;2023-11-19T07:18:37;18.90;66.30
51815;DHT22;37874;53.158;6.766;2023-11-19T07:21:04;18.90;66.30
51815;DHT22;37874;53.158;6.766;2023-11-19T07:23:30;18.90;66.30
51815;DHT22;37874;53.158;6.766;2023-11-19T07:25:58;18.90;66.40
51815;DHT22;37874;53.158;6.766;2023-11-19T07:28:24;18.90;66.30
51815;DHT22;37874;53.158;6.766;2023-11-19T07:30:50;18.90;66.30
51815;DHT22;37874;53.158;6.766;2023-11-19T07:33:16;18.90;66.30
51815;DHT22;37874;53.158;6.766;2023-11-19T07:35:42;18.90;66.30
51815;DHT22;37874;53.158;6.766;2023-11-19T07:38:09;18.90;66.30
51815;DHT22;37874;53.158;6.766;2023-11-19T07:40:35;18.90;66.30
51815;DHT22;37874;53.158;6.766;2023-11-19T07:43:01;18.90;66.30
51815;DHT22;37874;53.158;6.766;2023-11-19T07:45:27;18.90;66.40
51815;DHT22;37874;53.158;6.766;2023-11-19T07:47:53;18.80;66.20
51815;DHT22;37874;53.158;6.766;2023-11-19T07:50:20;18.80;66.20
51815;DHT22;37874;53.158;6.766;2023-11-19T07:52:49;18.90;66.20
51815;DHT22;37874;53.158;6.766;2023-11-19T07:55:15;18.80;66.10
51815;DHT22;37874;53.158;6.766;2023-11-19T07:57:41;18.90;66.10
51815;DHT22;37874;53.158;6.766;2023-11-19T08:00:07;18.80;66.20
51815;DHT22;37874;53.158;6.766;2023-11-19T08:02:38;18.90;66.10
51815;DHT22;37874;53.158;6.766;2023-11-19T08:05:04;18.90;66.10
51815;DHT22;37874;53.158;6.766;2023-11-19T08:07:30;18.90;66.10
51815;DHT22;37874;53.158;6.766;2023-11-19T08:09:56;18.90;66.20
51815;DHT22;37874;53.158;6.766;2023-11-19T08:12:22;18.90;66.10
51815;DHT22;37874;53.158;6.766;2023-11-19T08:14:49;18.90;66.00
51815;DHT22;37874;53.158;6.766;2023-11-19T08:17:15;18.90;66.00
51815;DHT22;37874;53.158;6.766;2023-11-19T08:19:41;18.90;66.00
51815;DHT22;37874;53.158;6.766;2023-11-19T08:22:07;18.90;66.10
51815;DHT22;37874;53.158;6.766;2023-11-19T08:24:34;18.90;66.00
51815;DHT22;37874;53.158;6.766;2023-11-19T08:27:00;18.90;66.00
51815;DHT22;37874;53.158;6.766;2023-11-19T08:29:26;18.90;66.10
51815;DHT22;37874;53.158;6.766;2023-11-19T08:31:53;18.90;66.10
51815;DHT22;37874;53.158;6.766;2023-11-19T08:34:19;18.90;66.20
51815;DHT22;37874;53.158;6.766;2023-11-19T08:36:45;18.90;66.20
51815;DHT22;37874;53.158;6.766;2023-11-19T08:39:11;18.90;66.10
51815;DHT22;37874;53.158;6.766;2023-11-19T08:41:36;18.90;66.10
51815;DHT22;37874;53.158;6.766;2023-11-19T08:44:03;18.90;66.00
51815;DHT22;37874;53.158;6.766;2023-11-19T08:46:29;18.90;65.90
51815;DHT22;37874;53.158;6.766;2023-11-19T08:48:55;18.90;66.00
51815;DHT22;37874;53.158;6.766;2023-11-19T08:51:23;18.90;66.00
51815;DHT22;37874;53.158;6.766;2023-11-19T08:53:50;18.80;66.10
51815;DHT22;37874;53.158;6.766;2023-11-19T08:56:16;18.80;66.00
51815;DHT22;37874;53.158;6.766;2023-11-19T08:58:42;18.90;66.20
51815;DHT22;37874;53.158;6.766;2023-11-19T09:01:11;18.80;66.20
51815;DHT22;37874;53.158;6.766;2023-11-19T09:03:37;18.90;66.20
51815;DHT22;37874;53.158;6.766;2023-11-19T09:06:03;18.90;66.10
51815;DHT22;37874;53.158;6.766;2023-11-19T09:08:29;18.90;66.20
51815;DHT22;37874;53.158;6.766;2023-11-19T09:10:55;18.90;66.10
51815;DHT22;37874;53.158;6.766;2023-11-19T09:13:21;18.90;66.10
51815;DHT22;37874;53.158;6.766;2023-11-19T09:15:47;18.90;66.00
51815;DHT22;37874;53.158;6.766;2023-11-19T09:18:12;18.90;66.10
51815;DHT22;37874;53.158;6.766;2023-11-19T09:20:38;19.70;66.50
51815;DHT22;37874;53.158;6.766;2023-11-19T09:23:05;18.90;66.00
51815;DHT22;37874;53.158;6.766;2023-11-19T09:25:32;18.90;66.00
51815;DHT22;37874;53.158;6.766;2023-11-19T09:27:57;18.90;66.00
51815;DHT22;37874;53.158;6.766;2023-11-19T09:30:23;19.00;66.00
51815;DHT22;37874;53.158;6.766;2023-11-19T09:32:49;19.00;66.00
51815;DHT22;37874;53.158;6.766;2023-11-19T09:35:15;19.00;65.90
51815;DHT22;37874;53.158;6.766;2023-11-19T09:37:42;19.00;65.70
51815;DHT22;37874;53.158;6.766;2023-11-19T09:40:09;19.10;65.70
51815;DHT22;37874;53.158;6.766;2023-11-19T09:42:43;19.10;65.70
51815;DHT22;37874;53.158;6.766;2023-11-19T09:45:16;19.10;66.10
51815;DHT22;37874;53.158;6.766;2023-11-19T09:47:45;19.10;65.60
51815;DHT22;37874;53.158;6.766;2023-11-19T09:50:19;19.10;65.60
51815;DHT22;37874;53.158;6.766;2023-11-19T09:52:49;19.10;65.60
51815;DHT22;37874;53.158;6.766;2023-11-19T09:55:15;19.10;65.50
51815;DHT22;37874;53.158;6.766;2023-11-19T09:57:41;19.10;65.70
51815;DHT22;37874;53.158;6.766;2023-11-19T10:00:08;19.10;65.60
51815;DHT22;37874;53.158;6.766;2023-11-19T10:02:37;19.10;65.50
51815;DHT22;37874;53.158;6.766;2023-11-19T10:05:13;19.20;65.60
51815;DHT22;37874;53.158;6.766;2023-11-19T10:07:40;19.20;65.50
51815;DHT22;37874;53.158;6.766;2023-11-19T10:10:06;19.20;65.50
51815;DHT22;37874;53.158;6.766;2023-11-19T10:12:33;19.20;65.50
51815;DHT22;37874;53.158;6.766;2023-11-19T10:14:59;19.20;65.50
51815;DHT22;37874;53.158;6.766;2023-11-19T10:17:29;19.20;65.50
51815;DHT22;37874;53.158;6.766;2023-11-19T10:19:59;19.10;65.60
51815;DHT22;37874;53.158;6.766;2023-11-19T10:22:25;19.10;65.60
51815;DHT22;37874;53.158;6.766;2023-11-19T10:24:58;19.10;65.60
51815;DHT22;37874;53.158;6.766;2023-11-19T10:27:27;19.10;65.70
51815;DHT22;37874;53.158;6.766;2023-11-19T10:29:53;19.10;66.40
51815;DHT22;37874;53.158;6.766;2023-11-19T10:32:19;19.10;66.00
51815;DHT22;37874;53.158;6.766;2023-11-19T10:34:45;19.10;66.00
51815;DHT22;37874;53.158;6.766;2023-11-19T10:37:30;19.10;66.20
51815;DHT22;37874;53.158;6.766;2023-11-19T10:39:57;19.20;66.30
51815;DHT22;37874;53.158;6.766;2023-11-19T10:42:24;19.10;66.30
51815;DHT22;37874;53.158;6.766;2023-11-19T10:44:50;19.00;66.20
51815;DHT22;37874;53.158;6.766;2023-11-19T10:47:18;19.00;66.30
51815;DHT22;37874;53.158;6.766;2023-11-19T10:49:45;19.00;66.40
51815;DHT22;37874;53.158;6.766;2023-11-19T10:52:18;19.00;66.50
51815;DHT22;37874;53.158;6.766;2023-11-19T10:54:50;19.00;66.40
51815;DHT22;37874;53.158;6.766;2023-11-19T10:57:20;19.10;66.50
51815;DHT22;37874;53.158;6.766;2023-11-19T10:59:52;19.10;66.30
51815;DHT22;37874;53.158;6.766;2023-11-19T11:02:22;19.10;66.30
51815;DHT22;37874;53.158;6.766;2023-11-19T11:04:50;19.10;66.30
51815;DHT22;37874;53.158;6.766;2023-11-19T11:07:21;19.10;66.30
51815;DHT22;37874;53.158;6.766;2023-11-19T11:09:48;19.10;66.30
51815;DHT22;37874;53.158;6.766;2023-11-19T11:12:18;19.10;66.30
51815;DHT22;37874;53.158;6.766;2023-11-19T11:14:52;19.10;66.40
51815;DHT22;37874;53.158;6.766;2023-11-19T11:17:20;19.10;66.50
51815;DHT22;37874;53.158;6.766;2023-11-19T11:19:52;19.20;66.40
51815;DHT22;37874;53.158;6.766;2023-11-19T11:22:19;19.20;66.50
51815;DHT22;37874;53.158;6.766;2023-11-19T11:27:35;19.20;66.20
51815;DHT22;37874;53.158;6.766;2023-11-19T11:33:26;19.30;65.90
51815;DHT22;37874;53.158;6.766;2023-11-19T11:38:28;19.30;65.80
51815;DHT22;37874;53.158;6.766;2023-11-19T11:46:53;19.30;65.90
51815;DHT22;37874;53.158;6.766;2023-11-19T11:49:25;19.30;66.00
51815;DHT22;37874;53.158;6.766;2023-11-19T11:52:00;19.30;66.00
51815;DHT22;37874;53.158;6.766;2023-11-19T11:54:28;19.20;66.00
51815;DHT22;37874;53.158;6.766;2023-11-19T11:57:12;19.20;66.10
51815;DHT22;37874;53.158;6.766;2023-11-19T12:02:08;19.20;66.20
51815;DHT22;37874;53.158;6.766;2023-11-19T12:04:35;19.20;66.10
51815;DHT22;37874;53.158;6.766;2023-11-19T12:07:11;19.20;66.10
51815;DHT22;37874;53.158;6.766;2023-11-19T12:09:41;19.20;66.10
51815;DHT22;37874;53.158;6.766;2023-11-19T12:15:04;19.20;66.30
51815;DHT22;37874;53.158;6.766;2023-11-19T12:20:01;19.10;66.40
51815;DHT22;37874;53.158;6.766;2023-11-19T12:22:30;19.10;66.40
51815;DHT22;37874;53.158;6.766;2023-11-19T12:24:56;19.20;66.50
51815;DHT22;37874;53.158;6.766;2023-11-19T12:27:22;19.20;66.30
51815;DHT22;37874;53.158;6.766;2023-11-19T12:29:49;19.30;66.80
51815;DHT22;37874;53.158;6.766;2023-11-19T12:32:15;19.40;66.10
51815;DHT22;37874;53.158;6.766;2023-11-19T12:34:41;19.40;66.00
51815;DHT22;37874;53.158;6.766;2023-11-19T12:37:08;19.40;65.80
51815;DHT22;37874;53.158;6.766;2023-11-19T12:39:35;19.40;65.70
51815;DHT22;37874;53.158;6.766;2023-11-19T12:42:01;19.50;65.70
51815;DHT22;37874;53.158;6.766;2023-11-19T12:44:27;19.50;65.60
51815;DHT22;37874;53.158;6.766;2023-11-19T12:47:14;19.50;65.50
51815;DHT22;37874;53.158;6.766;2023-11-19T12:49:41;19.60;65.40
51815;DHT22;37874;53.158;6.766;2023-11-19T12:52:13;19.50;65.30
51815;DHT22;37874;53.158;6.766;2023-11-19T12:54:39;19.50;65.50
51815;DHT22;37874;53.158;6.766;2023-11-19T12:57:05;19.50;65.60
51815;DHT22;37874;53.158;6.766;2023-11-19T12:59:33;19.40;65.60
51815;DHT22;37874;53.158;6.766;2023-11-19T13:02:00;19.40;65.70
51815;DHT22;37874;53.158;6.766;2023-11-19T13:04:32;19.40;65.80
51815;DHT22;37874;53.158;6.766;2023-11-19T13:06:58;19.40;65.90
51815;DHT22;37874;53.158;6.766;2023-11-19T13:09:26;19.30;65.80
51815;DHT22;37874;53.158;6.766;2023-11-19T13:11:54;19.40;65.70
51815;DHT22;37874;53.158;6.766;2023-11-19T13:14:21;19.40;65.60
51815;DHT22;37874;53.158;6.766;2023-11-19T13:16:47;19.40;65.80
51815;DHT22;37874;53.158;6.766;2023-11-19T13:19:17;19.30;65.80
51815;DHT22;37874;53.158;6.766;2023-11-19T13:21:45;19.30;65.80
51815;DHT22;37874;53.158;6.766;2023-11-19T13:24:13;19.30;65.80
51815;DHT22;37874;53.158;6.766;2023-11-19T13:26:39;19.30;65.80
51815;DHT22;37874;53.158;6.766;2023-11-19T13:29:05;19.30;65.90
51815;DHT22;37874;53.158;6.766;2023-11-19T13:31:31;19.30;65.90
51815;DHT22;37874;53.158;6.766;2023-11-19T13:33:57;19.20;66.00
51815;DHT22;37874;53.158;6.766;2023-11-19T13:36:24;19.20;66.10
51815;DHT22;37874;53.158;6.766;2023-11-19T13:38:51;19.20;66.10
51815;DHT22;37874;53.158;6.766;2023-11-19T13:41:17;19.20;66.20
51815;DHT22;37874;53.158;6.766;2023-11-19T13:43:43;19.20;66.30
51815;DHT22;37874;53.158;6.766;2023-11-19T13:46:09;19.20;66.30
51815;DHT22;37874;53.158;6.766;2023-11-19T13:48:35;19.10;66.40
51815;DHT22;37874;53.158;6.766;2023-11-19T13:51:01;19.20;66.50
51815;DHT22;37874;53.158;6.766;2023-11-19T13:53:27;19.20;66.50
51815;DHT22;37874;53.158;6.766;2023-11-19T13:55:53;19.10;66.40
51815;DHT22;37874;53.158;6.766;2023-11-19T13:58:19;19.20;66.40
51815;DHT22;37874;53.158;6.766;2023-11-19T14:00:45;19.20;66.50
51815;DHT22;37874;53.158;6.766;2023-11-19T14:03:11;19.20;66.50
51815;DHT22;37874;53.158;6.766;2023-11-19T14:05:38;19.10;66.50
51815;DHT22;37874;53.158;6.766;2023-11-19T14:08:04;19.10;66.40
51815;DHT22;37874;53.158;6.766;2023-11-19T14:10:40;19.10;66.50
51815;DHT22;37874;53.158;6.766;2023-11-19T14:13:07;19.10;66.60
51815;DHT22;37874;53.158;6.766;2023-11-19T14:15:33;19.00;66.70
51815;DHT22;37874;53.158;6.766;2023-11-19T14:17:59;18.60;66.50
51815;DHT22;37874;53.158;6.766;2023-11-19T14:20:25;19.00;66.70
51815;DHT22;37874;53.158;6.766;2023-11-19T14:22:52;19.10;66.70
51815;DHT22;37874;53.158;6.766;2023-11-19T14:25:18;19.00;66.70
51815;DHT22;37874;53.158;6.766;2023-11-19T14:27:45;19.00;66.80
51815;DHT22;37874;53.158;6.766;2023-11-19T14:30:14;19.00;66.80
51815;DHT22;37874;53.158;6.766;2023-11-19T14:32:41;19.00;66.80
51815;DHT22;37874;53.158;6.766;2023-11-19T14:35:09;19.00;67.00
51815;DHT22;37874;53.158;6.766;2023-11-19T14:37:43;19.10;67.10
51815;DHT22;37874;53.158;6.766;2023-11-19T14:40:10;19.00;67.10
51815;DHT22;37874;53.158;6.766;2023-11-19T14:42:37;19.00;67.20
51815;DHT22;37874;53.158;6.766;2023-11-19T14:45:05;19.00;67.40
51815;DHT22;37874;53.158;6.766;2023-11-19T14:47:31;19.00;67.30
51815;DHT22;37874;53.158;6.766;2023-11-19T14:49:57;19.00;67.40
51815;DHT22;37874;53.158;6.766;2023-11-19T14:52:23;19.00;67.30
51815;DHT22;37874;53.158;6.766;2023-11-19T14:54:49;19.00;67.30
51815;DHT22;37874;53.158;6.766;2023-11-19T14:57:17;18.90;67.30
51815;DHT22;37874;53.158;6.766;2023-11-19T14:59:42;19.00;67.40
51815;DHT22;37874;53.158;6.766;2023-11-19T15:02:08;19.00;68.00
51815;DHT22;37874;53.158;6.766;2023-11-19T15:04:35;19.00;67.30
51815;DHT22;37874;53.158;6.766;2023-11-19T15:07:01;19.00;67.30
51815;DHT22;37874;53.158;6.766;2023-11-19T15:09:27;18.90;67.40
51815;DHT22;37874;53.158;6.766;2023-11-19T15:11:56;18.90;67.50
51815;DHT22;37874;53.158;6.766;2023-11-19T15:14:24;18.90;67.50
51815;DHT22;37874;53.158;6.766;2023-11-19T15:16:50;18.90;67.50
51815;DHT22;37874;53.158;6.766;2023-11-19T15:19:18;18.90;67.60
51815;DHT22;37874;53.158;6.766;2023-11-19T15:21:45;18.90;67.60
51815;DHT22;37874;53.158;6.766;2023-11-19T15:24:11;18.90;67.70
51815;DHT22;37874;53.158;6.766;2023-11-19T15:26:38;18.90;67.70
51815;DHT22;37874;53.158;6.766;2023-11-19T15:29:04;18.90;67.80
51815;DHT22;37874;53.158;6.766;2023-11-19T15:31:30;18.90;68.40
51815;DHT22;37874;53.158;6.766;2023-11-19T15:33:57;18.90;67.90
51815;DHT22;37874;53.158;6.766;2023-11-19T15:36:23;18.90;68.00
51815;DHT22;37874;53.158;6.766;2023-11-19T15:38:49;18.90;68.00
51815;DHT22;37874;53.158;6.766;2023-11-19T15:41:15;18.90;67.90
51815;DHT22;37874;53.158;6.766;2023-11-19T15:43:42;18.90;68.00
51815;DHT22;37874;53.158;6.766;2023-11-19T15:46:09;18.80;67.90
51815;DHT22;37874;53.158;6.766;2023-11-19T15:48:36;18.80;68.00
51815;DHT22;37874;53.158;6.766;2023-11-19T15:51:03;18.90;68.10